Time;durP1;ratioP1;P1;durP2;ratioP2;P2;SDS_P1;SDS_P2;PMS_P1;PMS_P2;Temp;Humidity;BMP_temperature;BMP_pressure;BME280_temperature;BME280_humidity;BME280_pressure;Samples;Min_cycle;Max_cycle;Signal;HPM_P1;HPM_P2
2021/10/08 00:01:21;;;;;;;5.30;3.75;;;;;;;4.54;96.06;99998.09;4152060;28;20041;-71
2021/10/08 00:03:21;;;;;;;6.80;3.85;;;;;;;4.44;95.42;99994.44;4151090;28;20045;-71
2021/10/08 00:05:22;;;;;;;4.80;3.10;;;;;;;4.35;96.79;99985.28;4153762;28;20377;-71
2021/10/08 00:07:22;;;;;;;5.50;3.38;;;;;;;4.32;97.07;99993.28;4152825;28;20053;-71
2021/10/08 00:09:28;;;;;;;5.85;3.70;;;;;;;4.30;97.31;99996.31;4152161;28;20049;-71
2021/10/08 00:11:28;;;;;;;4.93;3.20;;;;;;;4.35;97.27;99993.50;4152414;28;20558;-71
2021/10/08 00:13:28;;;;;;;4.75;3.30;;;;;;;4.36;96.38;99986.06;4152552;28;20049;-71
2021/10/08 00:15:29;;;;;;;4.10;3.33;;;;;;;4.37;97.00;99994.00;4151888;28;20053;-71
2021/10/08 00:17:29;;;;;;;3.65;3.05;;;;;;;4.35;97.08;99988.00;4148797;28;20050;-71
2021/10/08 00:19:29;;;;;;;4.03;3.13;;;;;;;4.30;96.37;99990.00;4152350;28;20053;-71
2021/10/08 00:21:30;;;;;;;6.03;3.60;;;;;;;4.31;96.88;99988.94;4152559;28;20046;-71
2021/10/08 00:23:30;;;;;;;5.65;3.58;;;;;;;4.35;97.05;99988.00;4151426;28;20053;-71
2021/10/08 00:25:30;;;;;;;8.57;4.00;;;;;;;4.44;98.12;99991.69;4152607;28;20050;-71
2021/10/08 00:27:31;;;;;;;7.00;3.38;;;;;;;4.45;96.70;99985.09;4153268;28;20049;-70
2021/10/08 00:29:31;;;;;;;4.25;2.88;;;;;;;4.45;96.04;99992.50;4152976;28;20046;-70
2021/10/08 00:31:32;;;;;;;5.28;3.47;;;;;;;4.42;95.98;99991.19;4151775;28;20072;-70
2021/10/08 00:33:32;;;;;;;4.35;3.13;;;;;;;4.36;96.31;99984.16;4152086;28;20739;-71
2021/10/08 00:35:32;;;;;;;5.78;3.40;;;;;;;4.32;95.97;99988.63;4152439;28;20068;-71
2021/10/08 00:37:33;;;;;;;4.43;3.20;;;;;;;4.26;95.22;99987.06;4152084;28;20045;-71
2021/10/08 00:39:33;;;;;;;5.72;3.80;;;;;;;4.31;96.36;99984.25;4151925;28;20029;-71
2021/10/08 00:41:33;;;;;;;6.43;3.53;;;;;;;4.27;94.92;99985.94;4152986;28;20799;-70
2021/10/08 00:43:34;;;;;;;4.95;3.50;;;;;;;4.28;96.41;99993.06;4150707;28;20052;-70
2021/10/08 00:45:35;;;;;;;4.95;3.70;;;;;;;4.30;95.66;99990.00;4151687;28;20179;-71
2021/10/08 00:47:35;;;;;;;5.18;4.00;;;;;;;4.29;95.76;99989.19;4151314;28;20136;-71
2021/10/08 00:49:36;;;;;;;5.35;3.65;;;;;;;4.33;95.93;99990.25;4152236;28;20100;-71
2021/10/08 00:51:36;;;;;;;6.50;3.72;;;;;;;4.31;95.38;99984.25;4151955;28;20899;-71
2021/10/08 00:53:40;;;;;;;5.63;3.40;;;;;;;4.33;94.67;99992.16;4151886;28;20065;-71
2021/10/08 00:55:45;;;;;;;6.97;3.75;;;;;;;4.29;94.48;99982.91;4152457;28;20160;-70
2021/10/08 00:57:48;;;;;;;5.18;3.55;;;;;;;4.25;95.03;99979.16;4151002;28;20096;-70
2021/10/08 00:59:48;;;;;;;9.43;4.22;;;;;;;4.34;94.94;99980.91;4151641;28;20362;-70
2021/10/08 01:01:50;;;;;;;9.13;4.05;;;;;;;4.41;94.63;99986.00;4152856;28;20358;-70
2021/10/08 01:03:51;;;;;;;6.15;4.00;;;;;;;4.48;94.10;99975.47;4149615;28;20041;-70
2021/10/08 01:05:51;;;;;;;5.63;3.78;;;;;;;4.54;94.12;99987.94;4151521;28;20056;-70
2021/10/08 01:07:52;;;;;;;5.75;3.85;;;;;;;4.44;93.98;99980.72;4151385;28;20373;-70
2021/10/08 01:09:52;;;;;;;9.07;5.15;;;;;;;4.35;93.16;99985.28;4153060;28;20095;-71
2021/10/08 01:11:52;;;;;;;5.70;4.13;;;;;;;4.22;94.17;99980.56;4150995;28;20056;-71
2021/10/08 01:13:53;;;;;;;5.43;3.35;;;;;;;4.14;94.44;99981.25;4150353;28;20072;-71
2021/10/08 01:15:54;;;;;;;8.32;3.83;;;;;;;4.09;95.81;99990.34;4149915;28;20051;-71
2021/10/08 01:17:54;;;;;;;4.85;3.65;;;;;;;4.05;95.57;99983.84;4151640;28;20053;-71
2021/10/08 01:20:00;;;;;;;7.22;3.53;;;;;;;4.10;95.39;99991.97;4151252;28;20046;-71
2021/10/08 01:22:01;;;;;;;7.30;3.72;;;;;;;4.02;94.59;99991.84;4150595;28;20286;-71
2021/10/08 01:24:02;;;;;;;6.07;3.90;;;;;;;4.04;96.19;99979.47;4152297;28;20456;-71
2021/10/08 01:26:04;;;;;;;8.13;4.50;;;;;;;3.94;95.42;99979.63;4151627;28;20025;-71
2021/10/08 01:28:04;;;;;;;6.73;3.90;;;;;;;3.86;95.80;99989.34;4144121;28;20403;-71
2021/10/08 01:30:07;;;;;;;6.80;4.20;;;;;;;3.80;96.29;99976.00;4151556;28;20116;-71
2021/10/08 01:32:08;;;;;;;5.45;3.80;;;;;;;3.88;96.50;99980.81;4152216;28;20033;-71
2021/10/08 01:34:08;;;;;;;6.35;4.28;;;;;;;3.94;96.15;99979.63;4149997;28;20029;-71
2021/10/08 01:36:08;;;;;;;5.18;3.30;;;;;;;3.97;95.24;99970.81;4150952;28;20030;-71
2021/10/08 01:38:09;;;;;;;5.63;4.13;;;;;;;4.02;95.23;99970.75;4152411;28;20033;-71
2021/10/08 01:40:10;;;;;;;7.68;3.88;;;;;;;4.20;95.21;99966.34;4152065;28;20017;-71
2021/10/08 01:42:10;;;;;;;6.75;4.28;;;;;;;4.20;95.26;99964.41;4151179;28;20492;-71
2021/10/08 01:44:11;;;;;;;6.97;4.32;;;;;;;4.18;94.84;99968.56;4150951;28;20037;-71
2021/10/08 01:46:11;;;;;;;5.47;3.97;;;;;;;4.26;95.30;99976.09;4151621;28;20037;-71
2021/10/08 01:48:12;;;;;;;5.57;4.00;;;;;;;4.21;95.02;99968.78;4151191;28;20044;-71
2021/10/08 01:50:12;;;;;;;6.72;4.60;;;;;;;4.16;95.43;99962.59;4150934;28;20056;-71
2021/10/08 01:52:12;;;;;;;8.35;5.57;;;;;;;4.08;96.96;99961.34;4155312;28;20323;-71
2021/10/08 01:54:13;;;;;;;7.05;5.28;;;;;;;4.06;96.94;99963.56;4154477;28;20382;-71
2021/10/08 01:56:13;;;;;;;10.00;5.35;;;;;;;4.02;96.79;99945.28;4154396;28;20026;-71
2021/10/08 01:58:13;;;;;;;6.72;4.57;;;;;;;4.10;96.62;99958.31;4155608;28;20033;-71
2021/10/08 02:00:14;;;;;;;8.93;4.80;;;;;;;4.13;96.17;99954.94;4152917;28;20497;-70
2021/10/08 02:02:14;;;;;;;10.43;4.70;;;;;;;4.13;96.13;99947.53;4154148;28;20040;-70
2021/10/08 02:04:15;;;;;;;10.57;4.70;;;;;;;4.18;96.48;99954.88;4151731;28;20084;-71
2021/10/08 02:06:15;;;;;;;6.65;4.80;;;;;;;4.27;96.24;99953.06;4156048;28;20468;-71
2021/10/08 02:08:15;;;;;;;5.90;4.50;;;;;;;4.28;95.47;99945.66;4154878;28;20358;-71
2021/10/08 02:10:16;;;;;;;8.55;5.10;;;;;;;4.29;94.91;99941.81;4154385;28;20026;-71
2021/10/08 02:12:16;;;;;;;7.78;5.00;;;;;;;4.25;95.54;99943.53;4155679;28;20339;-71
2021/10/08 02:14:16;;;;;;;8.07;4.45;;;;;;;4.21;95.29;99937.81;4145613;28;20329;-71
2021/10/08 02:16:20;;;;;;;5.35;4.30;;;;;;;4.15;95.63;99937.13;4154067;28;20029;-71
2021/10/08 02:18:20;;;;;;;7.38;4.97;;;;;;;4.09;95.88;99937.50;4153614;28;20056;-71
2021/10/08 02:20:20;;;;;;;7.63;5.10;;;;;;;4.07;96.18;99947.94;4155197;28;20636;-71
2021/10/08 02:22:21;;;;;;;8.93;5.97;;;;;;;4.04;95.96;99945.78;4154565;28;20037;-71
2021/10/08 02:24:21;;;;;;;7.65;5.53;;;;;;;4.02;95.96;99942.53;4153270;28;20046;-71
2021/10/08 02:26:22;;;;;;;8.65;6.10;;;;;;;4.00;95.84;99937.38;4155348;28;20045;-71
2021/10/08 02:28:22;;;;;;;14.02;6.20;;;;;;;3.98;95.60;99936.06;4153678;28;20034;-71
2021/10/08 02:30:22;;;;;;;8.57;6.13;;;;;;;3.89;95.64;99944.13;4152083;28;20067;-70
2021/10/08 02:32:23;;;;;;;9.23;5.97;;;;;;;3.80;95.79;99943.16;4153558;28;20056;-70
2021/10/08 02:34:23;;;;;;;8.52;4.85;;;;;;;3.76;96.17;99947.63;4154244;28;20041;-70
2021/10/08 02:36:23;;;;;;;6.70;4.10;;;;;;;3.67;96.51;99948.28;4154437;28;20493;-70
2021/10/08 02:38:24;;;;;;;20.75;9.07;;;;;;;3.55;96.64;99947.91;4153466;28;20045;-70
2021/10/08 02:40:24;;;;;;;10.38;5.95;;;;;;;3.45;96.45;99941.78;4154979;28;20042;-70
2021/10/08 02:42:24;;;;;;;7.38;4.78;;;;;;;3.40;96.96;99939.94;4153726;28;20042;-70
2021/10/08 02:44:25;;;;;;;9.30;5.30;;;;;;;3.31;97.09;99941.69;4152158;28;20045;-70
2021/10/08 02:46:25;;;;;;;7.78;5.00;;;;;;;3.34;97.36;99952.03;4153818;28;20044;-70
2021/10/08 02:48:26;;;;;;;6.03;4.32;;;;;;;3.34;97.53;99949.31;4154237;28;20075;-70
2021/10/08 02:50:26;;;;;;;6.38;5.10;;;;;;;3.36;98.00;99961.59;4154222;28;20115;-70
2021/10/08 02:52:26;;;;;;;6.25;4.55;;;;;;;3.32;97.44;99960.56;4151846;28;20136;-70
2021/10/08 02:54:27;;;;;;;6.63;4.43;;;;;;;3.30;97.80;99964.66;4153686;28;20045;-70
2021/10/08 02:56:27;;;;;;;7.53;5.25;;;;;;;3.32;97.48;99957.81;4153147;28;20053;-70
2021/10/08 02:58:28;;;;;;;7.55;4.45;;;;;;;3.32;96.58;99957.81;4152023;28;20344;-70
2021/10/08 03:00:28;;;;;;;6.18;4.03;;;;;;;3.28;97.01;99959.50;4153950;28;20037;-71
2021/10/08 03:02:28;;;;;;;5.85;3.92;;;;;;;3.24;96.86;99960.41;4153407;28;20493;-71
2021/10/08 03:04:29;;;;;;;4.72;3.55;;;;;;;3.14;96.84;99955.84;4153833;28;20048;-70
2021/10/08 03:06:29;;;;;;;8.52;3.95;;;;;;;3.21;97.58;99971.91;4153219;28;20052;-70
2021/10/08 03:08:30;;;;;;;7.07;4.32;;;;;;;3.18;97.87;99961.56;4154340;28;20422;-71
2021/10/08 03:10:30;;;;;;;5.65;3.95;;;;;;;3.17;97.71;99976.34;4153276;28;20080;-71
2021/10/08 03:12:30;;;;;;;5.82;3.88;;;;;;;3.08;97.66;99965.25;4152675;28;20488;-70
2021/10/08 03:14:31;;;;;;;7.18;4.43;;;;;;;3.21;98.26;99963.69;4153312;28;20049;-70
2021/10/08 03:16:31;;;;;;;5.60;3.78;;;;;;;3.26;97.38;99969.13;4155191;28;20060;-70
2021/10/08 03:18:31;;;;;;;8.07;4.30;;;;;;;3.28;97.10;99966.91;4152669;28;20107;-70
2021/10/08 03:20:32;;;;;;;6.55;4.30;;;;;;;3.19;96.64;99965.91;4152438;28;20060;-70
2021/10/08 03:22:32;;;;;;;7.10;4.53;;;;;;;3.13;96.64;99956.16;4154342;28;20052;-70
2021/10/08 03:24:33;;;;;;;7.43;4.65;;;;;;;3.23;98.06;99958.78;4151775;28;20052;-70
2021/10/08 03:26:33;;;;;;;5.30;4.03;;;;;;;3.28;97.94;99964.16;4152955;28;20072;-70
2021/10/08 03:28:35;;;;;;;8.07;4.13;;;;;;;3.24;96.38;99966.69;4153946;28;20053;-70
2021/10/08 03:30:35;;;;;;;5.80;3.67;;;;;;;3.17;95.87;99965.41;4153027;28;20042;-70
2021/10/08 03:32:35;;;;;;;6.20;3.90;;;;;;;3.07;95.93;99969.91;4152833;28;21016;-70
2021/10/08 03:34:36;;;;;;;5.80;3.78;;;;;;;2.98;96.63;99977.13;4151861;28;20092;-70
2021/10/08 03:38:39;;;;;;;7.75;3.92;;;;;;;2.87;98.05;99978.31;4151954;28;20364;-70
2021/10/08 03:40:41;;;;;;;7.50;4.10;;;;;;;2.86;98.31;99984.91;4153051;28;20033;-70
2021/10/08 03:42:42;;;;;;;8.85;4.40;;;;;;;2.92;98.37;99982.94;4153540;28;20404;-70
2021/10/08 03:44:45;;;;;;;8.82;4.15;;;;;;;2.93;97.93;99984.56;4152273;28;20046;-70
2021/10/08 03:46:53;;;;;;;8.43;3.97;;;;;;;2.88;97.53;99987.34;4143409;28;20180;-70
2021/10/08 03:51:09;;;;;;;12.10;4.85;;;;;;;2.99;97.44;99995.16;4153160;28;20045;-70
2021/10/08 03:53:09;;;;;;;7.10;4.78;;;;;;;3.02;96.74;99996.47;4152604;28;20049;-70
2021/10/08 03:55:10;;;;;;;6.57;4.35;;;;;;;3.05;96.71;99996.69;4152617;28;20045;-70
2021/10/08 03:57:10;;;;;;;7.57;5.13;;;;;;;3.04;96.44;99999.72;4152565;28;20051;-70
2021/10/08 03:59:10;;;;;;;7.18;5.20;;;;;;;3.02;96.31;100007.41;4152579;28;20057;-70
2021/10/08 04:01:11;;;;;;;6.63;4.47;;;;;;;2.98;96.51;100004.47;4150728;28;20107;-70
2021/10/08 04:03:11;;;;;;;6.30;4.30;;;;;;;2.93;95.33;100018.19;4152283;28;20053;-70
2021/10/08 04:05:12;;;;;;;6.32;4.68;;;;;;;2.88;96.14;100011.94;4152842;28;20057;-70
2021/10/08 04:07:12;;;;;;;7.15;4.80;;;;;;;2.88;96.80;100003.75;4152959;28;20038;-70
2021/10/08 04:09:12;;;;;;;7.30;4.75;;;;;;;2.85;96.91;100009.81;4152740;28;20050;-70
2021/10/08 04:11:13;;;;;;;6.93;4.95;;;;;;;2.83;97.19;100006.53;4151129;28;20041;-71
2021/10/08 04:13:13;;;;;;;6.82;4.65;;;;;;;2.81;96.95;99995.88;4152215;28;20490;-71
2021/10/08 04:15:13;;;;;;;6.65;4.38;;;;;;;2.84;97.06;100002.69;4152084;28;20049;-71
2021/10/08 04:17:14;;;;;;;8.43;4.40;;;;;;;2.87;96.64;99997.47;4152432;28;20053;-71
2021/10/08 04:19:14;;;;;;;13.25;4.75;;;;;;;2.91;96.57;100001.25;4153186;28;20049;-71
2021/10/08 04:21:15;;;;;;;6.60;4.45;;;;;;;2.92;96.76;99994.69;4152402;28;20508;-72
2021/10/08 04:23:15;;;;;;;5.93;4.30;;;;;;;3.00;96.99;99995.97;4150306;28;20053;-72
2021/10/08 04:25:15;;;;;;;12.27;4.63;;;;;;;3.03;97.14;99998.09;4150072;28;20045;-72
2021/10/08 04:27:16;;;;;;;7.82;4.47;;;;;;;3.11;96.89;99994.72;4153598;28;20045;-71
2021/10/08 04:29:16;;;;;;;6.30;4.25;;;;;;;3.17;96.65;100004.50;4151937;28;20045;-71
2021/10/08 04:31:16;;;;;;;6.18;4.35;;;;;;;3.18;96.69;99997.13;4152438;28;20043;-71
2021/10/08 04:33:24;;;;;;;8.55;5.13;;;;;;;3.08;96.68;99978.91;4152802;28;20042;-72
2021/10/08 04:35:24;;;;;;;8.20;5.55;;;;;;;3.08;97.28;99993.41;4152537;28;20465;-71
2021/10/08 04:37:24;;;;;;;6.95;4.20;;;;;;;3.07;97.43;99988.22;4152504;28;20099;-72
2021/10/08 04:39:25;;;;;;;6.55;4.15;;;;;;;3.03;97.18;99989.91;4151469;28;20057;-71
2021/10/08 04:41:25;;;;;;;7.18;4.13;;;;;;;3.00;96.53;99988.56;4153458;28;20056;-71
2021/10/08 04:43:26;;;;;;;6.88;4.38;;;;;;;3.04;97.21;99995.06;4151251;28;20474;-71
2021/10/08 04:45:26;;;;;;;11.00;3.97;;;;;;;3.10;96.85;99993.91;4152183;28;20111;-72
2021/10/08 04:47:27;;;;;;;8.10;4.55;;;;;;;3.14;96.48;99996.06;4152299;28;20418;-70
2021/10/08 04:49:27;;;;;;;5.18;3.75;;;;;;;3.14;96.66;99994.13;4152595;28;20389;-71
2021/10/08 04:51:27;;;;;;;13.32;4.78;;;;;;;3.21;96.99;99991.88;4151659;28;20316;-71
2021/10/08 04:53:28;;;;;;;7.47;4.72;;;;;;;3.31;96.95;99985.44;4150899;28;20046;-71
2021/10/08 04:55:28;;;;;;;7.28;4.43;;;;;;;3.36;96.29;99993.59;4152676;28;20045;-71
2021/10/08 04:57:29;;;;;;;11.50;5.88;;;;;;;3.38;96.42;99999.59;4151797;28;20049;-71
2021/10/08 04:59:29;;;;;;;8.23;5.55;;;;;;;3.39;96.51;99998.47;4151756;28;20052;-72
2021/10/08 05:01:29;;;;;;;11.88;5.47;;;;;;;3.37;96.71;99996.03;4152575;28;20057;-71
2021/10/08 05:03:30;;;;;;;10.75;5.30;;;;;;;3.39;97.31;100003.94;4151297;28;20041;-71
2021/10/08 05:05:30;;;;;;;20.67;8.70;;;;;;;3.40;97.55;99996.59;4151293;28;20327;-71
2021/10/08 05:07:31;;;;;;;13.05;7.88;;;;;;;3.44;97.59;100000.34;4151867;28;20515;-71
2021/10/08 05:09:31;;;;;;;11.32;6.50;;;;;;;3.45;98.50;99989.09;4152726;28;20240;-71
2021/10/08 05:11:32;;;;;;;8.93;6.07;;;;;;;3.49;99.19;99997.56;4151197;28;20049;-71
2021/10/08 05:13:32;;;;;;;8.00;5.75;;;;;;;3.47;98.98;99989.59;4150864;28;20707;-71
2021/10/08 05:15:32;;;;;;;7.00;5.35;;;;;;;3.56;99.19;100000.75;4152700;28;20037;-71
2021/10/08 05:17:33;;;;;;;8.00;5.18;;;;;;;3.62;98.86;99985.84;4151409;28;20510;-71
2021/10/08 05:19:33;;;;;;;8.13;4.80;;;;;;;3.66;99.00;99995.13;4151113;28;20041;-71
2021/10/08 05:21:34;;;;;;;5.72;4.47;;;;;;;3.74;98.17;99996.38;4151419;28;20099;-71
2021/10/08 05:23:35;;;;;;;10.20;5.20;;;;;;;3.81;97.34;99999.56;4151574;28;20045;-71
2021/10/08 05:25:38;;;;;;;9.40;5.05;;;;;;;3.86;97.11;99992.06;4150950;28;20049;-71
2021/10/08 05:27:38;;;;;;;10.38;5.25;;;;;;;3.93;96.87;99994.44;4151501;28;20041;-71
2021/10/08 05:29:38;;;;;;;9.27;5.20;;;;;;;3.98;96.90;99999.84;4152363;28;20042;-72
2021/10/08 05:31:39;;;;;;;11.60;6.03;;;;;;;4.01;97.08;99982.00;4150745;28;20228;-72
2021/10/08 05:33:39;;;;;;;13.45;5.05;;;;;;;4.02;97.89;99991.84;4149395;28;20090;-71
2021/10/08 05:35:39;;;;;;;8.73;4.72;;;;;;;4.14;96.90;99992.22;4151322;28;20478;-71
2021/10/08 05:37:40;;;;;;;8.27;5.25;;;;;;;4.26;96.35;99994.47;4152552;28;20053;-71
2021/10/08 05:39:40;;;;;;;9.32;5.80;;;;;;;4.29;95.85;99986.47;4150891;28;20053;-72
2021/10/08 05:41:40;;;;;;;11.02;5.68;;;;;;;4.42;96.44;99998.59;4151905;28;20061;-72
2021/10/08 05:43:41;;;;;;;9.25;5.75;;;;;;;4.49;95.65;99986.13;4152072;28;20050;-70
2021/10/08 05:45:41;;;;;;;14.93;6.82;;;;;;;4.55;96.05;99991.50;4151053;28;20057;-71
2021/10/08 05:47:42;;;;;;;10.23;6.10;;;;;;;4.61;97.14;99999.34;4151347;28;20064;-72
2021/10/08 05:49:42;;;;;;;9.82;5.93;;;;;;;4.67;96.04;99998.13;4151688;28;20083;-72
2021/10/08 05:51:42;;;;;;;10.48;6.22;;;;;;;4.71;96.00;99993.66;4151312;28;20048;-72
2021/10/08 05:53:43;;;;;;;11.38;6.53;;;;;;;4.73;96.80;99994.19;4150184;28;20107;-72
2021/10/08 05:55:43;;;;;;;10.45;7.10;;;;;;;4.81;97.95;100003.66;4152933;28;20045;-71
2021/10/08 05:57:43;;;;;;;9.27;6.72;;;;;;;4.84;98.10;99997.56;4151493;28;20107;-72
2021/10/08 05:59:44;;;;;;;9.43;5.80;;;;;;;4.85;98.14;100012.06;4150726;28;20053;-72
2021/10/08 06:01:44;;;;;;;7.68;5.32;;;;;;;4.90;96.57;100015.53;4150846;28;20454;-72
2021/10/08 06:03:45;;;;;;;8.50;5.68;;;;;;;4.93;96.48;100014.94;4150926;28;20474;-72
2021/10/08 06:05:45;;;;;;;8.85;6.70;;;;;;;5.00;96.50;100014.53;4151388;28;20057;-72
2021/10/08 06:07:45;;;;;;;9.27;5.65;;;;;;;5.03;96.10;100016.66;4151052;28;20049;-71
2021/10/08 06:09:46;;;;;;;12.07;6.60;;;;;;;5.06;96.46;100019.63;4151480;28;20317;-71
2021/10/08 06:11:46;;;;;;;12.75;6.75;;;;;;;5.11;96.45;100020.63;4150961;28;20060;-71
2021/10/08 06:13:47;;;;;;;13.70;7.35;;;;;;;5.14;96.50;100023.59;4148555;28;20049;-71
2021/10/08 06:15:47;;;;;;;10.48;6.90;;;;;;;5.17;97.37;100022.97;4151037;28;20102;-71
2021/10/08 06:17:47;;;;;;;10.98;6.60;;;;;;;5.19;97.95;100019.91;4150855;28;20382;-71
2021/10/08 06:19:48;;;;;;;11.63;6.38;;;;;;;5.19;98.76;100019.91;4150971;28;20505;-72
2021/10/08 06:21:48;;;;;;;12.25;6.60;;;;;;;5.21;98.75;100028.66;4150918;28;20293;-72
2021/10/08 06:23:49;;;;;;;9.50;6.32;;;;;;;5.21;98.29;100025.91;4150931;28;20477;-72
2021/10/08 06:25:49;;;;;;;13.50;6.85;;;;;;;5.22;98.66;100028.38;4151258;28;20038;-71
2021/10/08 06:27:51;;;;;;;10.65;7.25;;;;;;;5.26;99.00;100026.63;4150515;28;20049;-71
2021/10/08 06:29:52;;;;;;;8.30;6.07;;;;;;;5.25;99.18;100029.69;4151192;28;20506;-71
2021/10/08 06:31:52;;;;;;;11.73;7.00;;;;;;;5.28;99.38;100029.06;4151420;28;20049;-71
2021/10/08 06:33:52;;;;;;;8.88;6.63;;;;;;;5.28;99.10;100034.56;4148882;28;20127;-72
2021/10/08 06:35:53;;;;;;;12.23;7.05;;;;;;;5.30;98.97;100037.81;4150763;28;20106;-72
2021/10/08 06:37:53;;;;;;;9.85;6.95;;;;;;;5.32;99.42;100032.84;4153586;28;20217;-72
2021/10/08 06:39:54;;;;;;;18.08;6.93;;;;;;;5.34;99.65;100036.09;4154292;28;20359;-71
2021/10/08 06:41:54;;;;;;;13.32;6.10;;;;;;;5.36;99.76;100042.88;4153479;28;20060;-72
2021/10/08 06:43:54;;;;;;;11.07;6.00;;;;;;;5.40;99.40;100043.09;4153663;28;20045;-72
2021/10/08 06:45:55;;;;;;;10.82;7.55;;;;;;;5.44;99.03;100038.63;4153936;28;20057;-71
2021/10/08 06:47:55;;;;;;;21.35;7.90;;;;;;;5.56;99.52;100040.84;4153369;28;20677;-70
2021/10/08 06:49:55;;;;;;;11.85;7.93;;;;;;;5.57;99.60;100037.00;4153923;28;20274;-71
2021/10/08 06:51:56;;;;;;;11.93;6.90;;;;;;;5.61;100.00;100052.53;4154052;28;20045;-71
2021/10/08 06:53:56;;;;;;;11.65;6.63;;;;;;;5.68;99.86;100052.13;4153268;28;20058;-71
2021/10/08 06:55:57;;;;;;;10.85;6.88;;;;;;;5.72;99.82;100052.34;4153339;28;20033;-72
2021/10/08 06:57:57;;;;;;;10.50;6.53;;;;;;;5.74;99.62;100050.91;4154570;28;20057;-72
2021/10/08 06:59:57;;;;;;;14.00;6.97;;;;;;;5.78;99.90;100051.91;4153932;28;20293;-70
2021/10/08 07:01:58;;;;;;;12.65;7.18;;;;;;;5.82;99.68;100047.44;4153234;28;20496;-71
2021/10/08 07:03:58;;;;;;;13.88;8.45;;;;;;;5.87;99.80;100055.53;4153496;28;20065;-71
2021/10/08 07:05:58;;;;;;;9.55;6.82;;;;;;;5.94;99.78;100046.91;4151980;28;20052;-71
2021/10/08 07:07:59;;;;;;;13.27;7.75;;;;;;;5.95;99.64;100043.03;4153770;28;20508;-71
2021/10/08 07:09:59;;;;;;;11.90;6.88;;;;;;;6.03;100.00;100049.72;4153524;28;20078;-71
2021/10/08 07:11:59;;;;;;;11.10;7.28;;;;;;;6.09;99.73;100052.06;4153669;28;20049;-72
2021/10/08 07:14:00;;;;;;;10.23;7.05;;;;;;;6.15;100.00;100052.78;4151521;28;20111;-72
2021/10/08 07:16:01;;;;;;;15.23;8.65;;;;;;;6.20;100.00;100058.13;4153112;28;20045;-71
2021/10/08 07:18:01;;;;;;;15.25;8.93;;;;;;;6.23;99.96;100054.78;4146818;28;20111;-72
2021/10/08 07:20:02;;;;;;;16.55;8.48;;;;;;;6.27;100.00;100055.75;4151054;28;20022;-72
2021/10/08 07:22:02;;;;;;;11.77;7.00;;;;;;;6.28;99.80;100062.06;4153826;28;20429;-71
2021/10/08 07:24:03;;;;;;;13.05;8.10;;;;;;;6.31;99.88;100058.72;4153101;28;20048;-72
2021/10/08 07:26:03;;;;;;;10.43;7.28;;;;;;;6.40;100.00;100059.59;4152644;28;20248;-72
2021/10/08 07:28:04;;;;;;;12.95;8.95;;;;;;;6.45;100.00;100059.47;4153087;28;20091;-72
2021/10/08 07:30:05;;;;;;;15.88;9.80;;;;;;;6.48;99.92;100056.91;4151838;28;20037;-72
2021/10/08 07:32:06;;;;;;;11.60;7.97;;;;;;;6.51;100.00;100057.41;4153427;28;20033;-72
2021/10/08 07:34:06;;;;;;;13.23;8.63;;;;;;;6.57;99.81;100051.47;4152131;28;20030;-71
2021/10/08 07:36:06;;;;;;;11.55;8.15;;;;;;;6.66;100.00;100060.59;4153393;28;20072;-72
2021/10/08 07:38:07;;;;;;;13.40;9.60;;;;;;;6.72;99.85;100056.59;4152121;28;20037;-72
2021/10/08 07:40:08;;;;;;;14.43;9.38;;;;;;;6.81;99.81;100059.41;4152986;28;20029;-71
2021/10/08 07:42:09;;;;;;;15.90;9.45;;;;;;;6.88;99.42;100058.97;4153357;28;20493;-72
2021/10/08 07:44:09;;;;;;;15.57;9.75;;;;;;;6.94;99.39;100055.72;4152545;28;20045;-72
2021/10/08 07:46:10;;;;;;;18.88;10.13;;;;;;;7.01;99.51;100049.78;4153147;28;20029;-71
2021/10/08 07:48:10;;;;;;;13.98;9.55;;;;;;;7.06;99.47;100052.41;4152486;28;20040;-71
2021/10/08 07:50:11;;;;;;;17.92;11.55;;;;;;;7.14;99.42;100057.16;4152978;28;20037;-71
2021/10/08 07:52:11;;;;;;;15.35;9.52;;;;;;;7.18;99.54;100051.81;4153272;28;20038;-71
2021/10/08 07:54:12;;;;;;;16.92;10.52;;;;;;;7.28;99.11;100049.59;4152515;28;20042;-71
2021/10/08 07:56:13;;;;;;;22.13;11.55;;;;;;;7.38;99.35;100053.19;4153094;28;20281;-72
2021/10/08 07:58:13;;;;;;;17.02;10.98;;;;;;;7.45;99.31;100054.34;4152828;28;20049;-72
2021/10/08 08:00:14;;;;;;;15.93;10.23;;;;;;;7.49;98.87;100044.31;4152850;28;20030;-71
2021/10/08 08:02:14;;;;;;;17.10;11.32;;;;;;;7.56;98.78;100052.13;4152841;28;20033;-72
2021/10/08 08:04:15;;;;;;;21.15;10.95;;;;;;;7.59;98.06;100062.47;4151853;28;20423;-72
2021/10/08 08:06:15;;;;;;;20.50;11.18;;;;;;;7.62;98.29;100059.09;4152861;28;20306;-72
2021/10/08 08:08:15;;;;;;;16.88;10.45;;;;;;;7.66;97.84;100057.31;4152957;28;20029;-72
2021/10/08 08:10:16;;;;;;;15.52;10.18;;;;;;;7.71;98.37;100057.19;4153085;28;20025;-72
2021/10/08 08:12:17;;;;;;;17.38;10.27;;;;;;;7.78;98.41;100060.28;4151194;28;20653;-71
2021/10/08 08:14:17;;;;;;;17.77;11.48;;;;;;;7.86;97.87;100064.16;4151723;28;20108;-72
2021/10/08 08:16:17;;;;;;;15.95;10.68;;;;;;;7.90;97.53;100059.66;4153145;28;20037;-72
2021/10/08 08:18:18;;;;;;;17.02;11.48;;;;;;;7.97;96.90;100056.41;4152333;28;20041;-72
2021/10/08 08:20:18;;;;;;;16.23;11.07;;;;;;;8.01;96.90;100051.88;4150993;28;20313;-72
2021/10/08 08:22:18;;;;;;;16.02;10.52;;;;;;;8.07;96.92;100061.63;4135142;28;20041;-72
2021/10/08 08:24:19;;;;;;;18.50;11.70;;;;;;;8.12;97.11;100069.75;4152150;28;20205;-72
2021/10/08 08:26:19;;;;;;;15.57;10.40;;;;;;;8.18;96.42;100060.16;4152166;28;20418;-70
2021/10/08 08:28:20;;;;;;;21.33;13.82;;;;;;;8.21;96.15;100059.53;4151987;28;20033;-71
2021/10/08 08:30:20;;;;;;;19.48;12.02;;;;;;;8.22;96.39;100069.41;4152877;28;20057;-71
2021/10/08 08:32:21;;;;;;;19.02;10.80;;;;;;;8.23;95.96;100064.72;4151666;28;20049;-71
2021/10/08 08:34:22;;;;;;;29.45;17.00;;;;;;;8.29;95.85;100075.25;4151600;28;20061;-71
2021/10/08 08:36:23;;;;;;;28.30;17.30;;;;;;;8.33;96.75;100067.13;4151673;28;20063;-71
2021/10/08 08:38:23;;;;;;;35.30;18.65;;;;;;;8.35;96.49;100073.97;4152915;28;20045;-71
2021/10/08 08:40:25;;;;;;;28.60;16.10;;;;;;;8.38;96.04;100075.28;4151792;28;20473;-71
2021/10/08 08:42:26;;;;;;;21.80;12.45;;;;;;;8.36;96.39;100063.78;4151686;28;20077;-71
2021/10/08 08:44:26;;;;;;;16.60;11.05;;;;;;;8.41;96.30;100075.44;4151586;28;20041;-71
2021/10/08 08:46:27;;;;;;;17.23;11.38;;;;;;;8.44;96.88;100068.47;4151679;28;20037;-71
2021/10/08 08:48:27;;;;;;;20.23;11.52;;;;;;;8.47;96.87;100062.31;4151282;28;20046;-71
2021/10/08 08:50:27;;;;;;;16.55;10.98;;;;;;;8.52;96.13;100061.31;4151168;28;20377;-72
2021/10/08 08:52:28;;;;;;;17.60;11.15;;;;;;;8.58;96.04;100069.09;4152781;28;20497;-71
2021/10/08 08:54:29;;;;;;;17.75;11.88;;;;;;;8.63;95.75;100068.94;4151147;28;20049;-71
2021/10/08 08:56:29;;;;;;;18.10;12.40;;;;;;;8.69;95.50;100064.88;4151586;28;20631;-71
2021/10/08 08:58:29;;;;;;;19.02;11.95;;;;;;;8.72;95.46;100061.47;4152512;28;20645;-71
2021/10/08 09:00:30;;;;;;;16.67;11.05;;;;;;;8.77;95.06;100066.00;4149988;28;20406;-71
2021/10/08 09:02:31;;;;;;;19.20;11.63;;;;;;;8.82;94.53;100062.25;4150512;28;20053;-71
2021/10/08 09:04:32;;;;;;;18.02;11.85;;;;;;;8.86;94.71;100057.72;4150742;28;20464;-71
2021/10/08 09:06:33;;;;;;;19.67;11.77;;;;;;;8.89;94.58;100070.84;4152578;28;20037;-71
2021/10/08 09:08:34;;;;;;;16.88;12.30;;;;;;;8.90;92.68;100061.44;4151911;28;20509;-71
2021/10/08 09:10:36;;;;;;;24.25;14.27;;;;;;;8.95;93.86;100064.84;4150724;28;20045;-71
2021/10/08 09:12:37;;;;;;;24.67;14.93;;;;;;;8.98;95.01;100050.38;4151956;28;20525;-71
2021/10/08 09:14:38;;;;;;;28.20;15.13;;;;;;;9.01;95.15;100048.88;4151094;28;20111;-71
2021/10/08 09:16:38;;;;;;;23.77;14.40;;;;;;;9.10;94.92;100052.44;4152036;28;20041;-71
2021/10/08 09:18:41;;;;;;;29.38;15.73;;;;;;;9.18;95.12;100061.81;4133672;28;20034;-70
2021/10/08 09:21:08;;;;;;;26.73;15.60;;;;;;;9.22;95.05;100047.03;4134430;28;20046;-71
2021/10/08 09:23:08;;;;;;;31.75;17.23;;;;;;;9.33;95.29;100052.19;4149652;28;20057;-71
2021/10/08 09:25:15;;;;;;;35.00;16.30;;;;;;;9.39;95.17;100053.63;4151713;28;20103;-71
2021/10/08 09:27:16;;;;;;;36.28;16.92;;;;;;;9.43;95.11;100052.66;4152626;28;20095;-71
2021/10/08 09:29:17;;;;;;;32.58;16.90;;;;;;;9.48;94.89;100057.16;4151902;28;20457;-71
2021/10/08 09:31:18;;;;;;;48.42;22.48;;;;;;;9.51;95.39;100050.97;4150782;28;20119;-71